Time;durP1;ratioP1;P1;durP2;ratioP2;P2;SDS_P1;SDS_P2;PMS_P1;PMS_P2;Temp;Humidity;BMP_temperature;BMP_pressure;BME280_temperature;BME280_humidity;BME280_pressure;Samples;Min_cycle;Max_cycle;Signal;HPM_P1;HPM_P2
2024/03/01 00:00:22;;;;;;;;;;;;;;;12.66;72.56;100540.03;5023303;27;97644;-69
2024/03/01 00:02:50;;;;;;;51.30;23.07;;;;;;;12.63;72.50;100540.16;5029597;27;99187;-70
2024/03/01 00:05:17;;;;;;;49.67;23.67;;;;;;;12.67;72.16;100536.41;5021862;27;99243;-68
2024/03/01 00:07:43;;;;;;;48.92;23.98;;;;;;;12.59;72.41;100535.94;5027528;27;96763;-68
2024/03/01 00:10:10;;;;;;;54.78;23.65;;;;;;;12.52;72.25;100531.84;5021631;27;97882;-68
2024/03/01 00:12:36;;;;;;;51.33;22.50;;;;;;;12.54;72.54;100527.31;5016623;27;99303;-68
2024/03/01 00:15:03;;;;;;;52.60;23.75;;;;;;;12.50;72.80;100529.28;5025085;27;98627;-68
2024/03/01 00:17:29;;;;;;;49.58;24.23;;;;;;;12.35;73.54;100532.63;5025231;27;97083;-68
2024/03/01 00:19:57;;;;;;;57.90;24.17;;;;;;;12.64;72.20;100518.03;5022942;27;96854;-68
2024/03/01 00:22:23;;;;;;;53.35;24.02;;;;;;;12.40;73.14;100513.88;5022366;27;99046;-69
2024/03/01 00:24:50;;;;;;;53.65;24.95;;;;;;;12.42;73.20;100518.16;5026692;27;101943;-68
2024/03/01 00:27:17;;;;;;;58.92;25.70;;;;;;;12.27;73.47;100511.78;5016724;27;96873;-68
2024/03/01 00:29:43;;;;;;;55.58;25.80;;;;;;;12.13;73.87;100516.00;5019067;27;97182;-69
2024/03/01 00:32:10;;;;;;;57.65;26.48;;;;;;;12.21;74.19;100517.34;5026982;27;99491;-68
2024/03/01 00:34:36;;;;;;;59.70;25.38;;;;;;;12.24;74.28;100509.28;5017831;27;98063;-68
2024/03/01 00:37:04;;;;;;;58.00;26.40;;;;;;;12.07;75.26;100506.56;5018640;27;97489;-69
2024/03/01 00:39:31;;;;;;;54.38;26.17;;;;;;;12.15;74.78;100512.34;5019942;27;96946;-69
2024/03/01 00:41:58;;;;;;;57.58;27.23;;;;;;;11.86;75.77;100512.81;5023523;27;99052;-69
2024/03/01 00:44:24;;;;;;;56.88;26.48;;;;;;;11.99;75.61;100511.31;5027076;27;100309;-69
2024/03/01 00:46:51;;;;;;;60.55;25.38;;;;;;;12.05;75.74;100503.09;5026570;27;98818;-69
2024/03/01 00:49:17;;;;;;;61.00;27.27;;;;;;;11.81;76.40;100493.63;5024846;27;97167;-68
2024/03/01 00:51:44;;;;;;;60.28;26.30;;;;;;;12.00;75.81;100494.50;5026878;27;99126;-69
2024/03/01 00:54:12;;;;;;;62.50;27.15;;;;;;;12.05;76.13;100492.50;5022333;27;98848;-68
2024/03/01 00:56:38;;;;;;;67.15;28.40;;;;;;;12.00;76.15;100489.22;5022647;27;97553;-68
2024/03/01 00:59:05;;;;;;;58.80;27.15;;;;;;;12.02;76.39;100494.44;5026252;27;97312;-68
2024/03/01 01:01:30;;;;;;;60.80;26.10;;;;;;;11.99;76.72;100487.50;5027769;27;99646;-67
2024/03/01 01:03:56;;;;;;;;;;;;;;;11.96;77.13;100484.97;5026226;27;97477;-67
2024/03/01 01:06:23;;;;;;;66.43;27.15;;;;;;;12.15;76.13;100488.50;5019306;27;98360;-68
2024/03/01 01:08:49;;;;;;;61.38;27.75;;;;;;;12.02;77.11;100492.63;5023525;27;96890;-68
2024/03/01 01:11:17;;;;;;;64.00;27.48;;;;;;;12.04;77.37;100488.13;5019237;27;99312;-68
2024/03/01 01:13:43;;;;;;;67.30;28.65;;;;;;;12.12;76.44;100478.06;5022063;27;98887;-67
2024/03/01 01:16:10;;;;;;;63.05;27.95;;;;;;;12.23;76.63;100462.53;5022316;27;97149;-68
2024/03/01 01:18:36;;;;;;;68.82;29.40;;;;;;;12.35;76.32;100469.88;5024218;27;98852;-68
2024/03/01 01:21:03;;;;;;;70.80;29.67;;;;;;;12.17;77.27;100461.94;5031232;27;98875;-67
2024/03/01 01:23:29;;;;;;;74.20;32.42;;;;;;;11.85;79.19;100458.13;5032399;27;97560;-68
2024/03/01 01:25:56;;;;;;;79.07;31.23;;;;;;;11.84;79.43;100453.75;5029481;27;97271;-68
2024/03/01 01:28:24;;;;;;;79.38;33.35;;;;;;;11.83;79.56;100450.25;5029093;27;96897;-68
2024/03/01 01:30:50;;;;;;;81.53;31.58;;;;;;;11.98;79.39;100451.34;5024534;27;98444;-69
2024/03/01 01:33:17;;;;;;;81.78;34.33;;;;;;;12.11;78.92;100439.25;5031640;27;98890;-69
2024/03/01 01:35:43;;;;;;;76.65;32.75;;;;;;;12.00;79.56;100436.25;5025952;27;96984;-69
2024/03/01 01:38:09;;;;;;;79.45;31.83;;;;;;;12.11;78.95;100441.91;5030105;27;98210;-68
2024/03/01 01:40:36;;;;;;;81.55;31.98;;;;;;;12.09;79.09;100441.09;5029702;27;99158;-69
2024/03/01 01:43:03;;;;;;;90.78;34.35;;;;;;;12.07;79.14;100437.69;5030880;27;98913;-69
2024/03/01 01:45:32;;;;;;;90.75;35.40;;;;;;;11.92;80.10;100436.59;5033118;27;99111;-69
2024/03/01 01:47:59;;;;;;;83.30;33.13;;;;;;;11.78;81.22;100430.22;5020275;27;97742;-70
2024/03/01 01:50:26;;;;;;;96.00;34.33;;;;;;;11.67;82.50;100440.41;5031821;27;98911;-70
2024/03/01 01:52:54;;;;;;;95.60;36.25;;;;;;;11.88;81.68;100440.31;5027618;27;99649;-69
2024/03/01 01:55:21;;;;;;;87.88;35.47;;;;;;;11.89;80.73;100443.81;5026841;27;97338;-69
2024/03/01 01:57:47;;;;;;;88.32;34.85;;;;;;;11.87;81.50;100429.81;5028258;27;97573;-69
2024/03/01 02:00:14;;;;;;;96.63;35.53;;;;;;;12.01;80.79;100424.75;5022935;27;99212;-69
2024/03/01 02:02:42;;;;;;;92.38;35.35;;;;;;;11.95;81.27;100425.00;5026332;27;98871;-69
2024/03/01 02:05:10;;;;;;;91.30;34.83;;;;;;;11.77;82.02;100420.56;5024072;27;97326;-69
2024/03/01 02:07:37;;;;;;;90.63;35.63;;;;;;;11.90;82.40;100411.13;5026898;27;96965;-69
2024/03/01 02:10:11;;;;;;;89.40;35.72;;;;;;;11.74;82.54;100416.28;5032246;27;99095;-69
2024/03/01 02:12:52;;;;;;;97.55;36.90;;;;;;;11.78;83.06;100419.63;5029051;27;98920;-68
2024/03/01 02:15:19;;;;;;;94.60;35.92;;;;;;;11.82;82.83;100416.75;5019440;27;96833;-68
2024/03/01 02:17:47;;;;;;;92.00;38.65;;;;;;;11.74;83.59;100418.06;5026468;27;98450;-68
2024/03/01 02:20:14;;;;;;;94.40;36.20;;;;;;;11.61;84.55;100409.78;5017825;27;99485;-68
2024/03/01 02:22:47;;;;;;;94.93;37.05;;;;;;;11.64;84.55;100406.13;5025993;27;99502;-68
2024/03/01 02:25:15;;;;;;;100.82;38.30;;;;;;;11.69;84.40;100406.75;5024169;27;97692;-68
2024/03/01 02:27:42;;;;;;;95.22;37.35;;;;;;;11.83;83.58;100396.44;5024942;27;97388;-67
2024/03/01 02:30:09;;;;;;;93.03;37.28;;;;;;;11.85;83.76;100394.59;5025628;27;99943;-68
2024/03/01 02:32:36;;;;;;;99.75;37.38;;;;;;;11.78;83.92;100398.44;5028984;27;98884;-68
2024/03/01 02:35:03;;;;;;;105.90;39.58;;;;;;;11.96;83.69;100392.28;5027414;27;96878;-67
2024/03/01 02:37:29;;;;;;;102.35;39.40;;;;;;;11.91;83.39;100392.53;5031415;27;97931;-68
2024/03/01 02:39:56;;;;;;;101.60;39.55;;;;;;;11.81;83.99;100393.03;5025247;27;99295;-67
2024/03/01 02:42:24;;;;;;;103.50;38.40;;;;;;;11.82;84.21;100390.28;5025750;27;97492;-68
2024/03/01 02:44:50;;;;;;;108.53;40.80;;;;;;;11.89;84.12;100380.28;5028438;27;97147;-68
2024/03/01 02:47:16;;;;;;;106.30;40.65;;;;;;;11.90;83.92;100380.22;5023859;27;97364;-68
2024/03/01 02:49:43;;;;;;;109.80;41.15;;;;;;;11.92;84.28;100385.44;5032021;27;99367;-68
2024/03/01 02:52:09;;;;;;;99.18;38.25;;;;;;;11.92;84.19;100381.00;5033019;27;99270;-68
2024/03/01 02:54:35;;;;;;;106.78;39.55;;;;;;;11.71;85.17;100374.03;5023078;27;97226;-69
2024/03/01 02:57:02;;;;;;;117.72;41.92;;;;;;;11.85;84.77;100378.72;5022962;27;98766;-68
2024/03/01 02:59:30;;;;;;;101.53;41.28;;;;;;;12.01;84.20;100374.44;5025709;27;98875;-69
2024/03/01 03:01:56;;;;;;;110.50;42.13;;;;;;;11.77;85.17;100376.41;5029605;27;98729;-69
2024/03/01 03:04:23;;;;;;;110.30;42.38;;;;;;;11.83;85.17;100375.25;5021189;27;97625;-69
2024/03/01 03:06:49;;;;;;;107.93;40.88;;;;;;;11.84;85.29;100377.84;5029735;27;97309;-69
2024/03/01 03:09:15;;;;;;;107.80;40.40;;;;;;;11.62;85.98;100377.06;5022622;27;99291;-68
2024/03/01 03:11:42;;;;;;;114.63;40.78;;;;;;;11.77;85.91;100364.97;5031489;27;97741;-68
2024/03/01 03:14:08;;;;;;;122.07;41.53;;;;;;;11.75;85.82;100372.13;5016744;27;99309;-69
2024/03/01 03:16:36;;;;;;;108.18;41.22;;;;;;;11.87;85.86;100371.56;5025814;27;97016;-68
2024/03/01 03:19:03;;;;;;;109.38;42.42;;;;;;;11.71;86.31;100362.56;5023506;27;99031;-68
2024/03/01 03:21:29;;;;;;;105.90;41.63;;;;;;;11.84;86.01;100367.25;5020185;27;98987;-68
2024/03/01 03:23:55;;;;;;;114.70;41.38;;;;;;;11.78;86.18;100364.03;5023174;27;96709;-68
2024/03/01 03:26:22;;;;;;;116.22;42.00;;;;;;;11.78;86.03;100359.59;5023524;27;98745;-67
2024/03/01 03:28:48;;;;;;;123.80;45.25;;;;;;;11.83;86.00;100362.03;5025281;27;99036;-68
2024/03/01 03:31:14;;;;;;;110.93;41.70;;;;;;;11.95;85.78;100364.09;5026824;27;99040;-68
2024/03/01 03:33:42;;;;;;;116.07;43.67;;;;;;;12.02;85.41;100354.06;5021180;27;98223;-68
2024/03/01 03:36:09;;;;;;;111.95;43.13;;;;;;;12.02;85.10;100362.00;5033592;27;96935;-68
2024/03/01 03:38:36;;;;;;;117.72;44.55;;;;;;;12.07;84.85;100358.25;5028956;27;97934;-68
2024/03/01 03:41:02;;;;;;;114.60;44.38;;;;;;;12.05;85.40;100360.09;5034041;27;99271;-69
2024/03/01 03:43:28;;;;;;;118.07;44.38;;;;;;;11.97;85.15;100355.16;5023948;27;97160;-69
2024/03/01 03:45:55;;;;;;;115.88;45.08;;;;;;;12.07;85.25;100358.25;5025873;27;100005;-69
2024/03/01 03:48:21;;;;;;;123.13;44.83;;;;;;;12.18;85.02;100366.53;5030453;27;101637;-70
2024/03/01 03:50:49;;;;;;;120.80;43.58;;;;;;;12.03;85.48;100361.94;5023507;27;101460;-69
2024/03/01 03:53:16;;;;;;;115.13;43.75;;;;;;;12.02;85.58;100356.72;5024797;27;99037;-69
2024/03/01 03:55:42;;;;;;;122.30;44.90;;;;;;;12.08;85.03;100364.41;5022590;27;96822;-69
2024/03/01 03:58:09;;;;;;;122.07;45.97;;;;;;;12.07;85.26;100358.25;5033805;27;99017;-69
2024/03/01 04:00:35;;;;;;;128.77;47.28;;;;;;;12.15;85.07;100356.06;5031160;27;97722;-69
2024/03/01 04:03:02;;;;;;;119.22;46.08;;;;;;;12.10;84.93;100351.94;5032804;27;96930;-70
2024/03/01 04:05:29;;;;;;;116.38;45.55;;;;;;;12.12;85.42;100348.28;5030718;27;96799;-69
2024/03/01 04:07:56;;;;;;;118.03;44.55;;;;;;;12.21;84.66;100350.47;5016932;27;99038;-69
2024/03/01 04:10:23;;;;;;;121.15;46.30;;;;;;;12.35;84.41;100352.44;5028258;27;101753;-69
2024/03/01 04:12:49;;;;;;;112.35;43.35;;;;;;;12.14;84.98;100342.91;5018764;27;97151;-69
2024/03/01 04:15:16;;;;;;;123.85;45.90;;;;;;;12.31;84.35;100340.28;5025547;27;96927;-69
2024/03/01 04:17:42;;;;;;;121.18;44.42;;;;;;;12.18;84.89;100349.78;5026379;27;100950;-68
2024/03/01 04:20:09;;;;;;;123.55;45.25;;;;;;;12.14;84.97;100345.56;5029314;27;99737;-68
2024/03/01 04:22:36;;;;;;;122.72;46.40;;;;;;;12.32;84.78;100344.66;5026045;27;96794;-68
2024/03/01 04:25:05;;;;;;;118.20;46.30;;;;;;;12.13;85.16;100351.78;5023018;27;98238;-68
2024/03/01 04:27:31;;;;;;;125.10;47.03;;;;;;;11.99;86.23;100344.50;5022602;27;99421;-68
2024/03/01 04:29:58;;;;;;;129.55;47.45;;;;;;;12.04;86.01;100338.97;5026311;27;99268;-68
2024/03/01 04:32:24;;;;;;;120.53;46.63;;;;;;;11.89;86.97;100340.56;5024379;27;97234;-70
2024/03/01 04:34:51;;;;;;;131.57;48.28;;;;;;;12.17;85.95;100354.22;5018145;27;96919;-69
2024/03/01 04:37:18;;;;;;;124.45;47.70;;;;;;;12.10;85.85;100344.84;5028385;27;98555;-68
2024/03/01 04:39:46;;;;;;;117.68;43.72;;;;;;;12.04;86.17;100345.13;5024522;27;99736;-71
2024/03/01 04:42:14;;;;;;;130.55;47.00;;;;;;;12.33;85.06;100343.75;5022779;27;97716;-68
2024/03/01 04:44:41;;;;;;;125.85;47.05;;;;;;;12.40;84.42;100344.31;5025519;27;97095;-68
2024/03/01 04:47:08;;;;;;;128.27;46.78;;;;;;;12.38;84.33;100341.72;5024292;27;98959;-68
2024/03/01 04:49:34;;;;;;;122.68;47.90;;;;;;;12.38;84.14;100336.41;5021375;27;98370;-68
2024/03/01 04:52:00;;;;;;;127.38;46.45;;;;;;;12.42;84.28;100342.41;5018467;27;97666;-69
2024/03/01 04:54:27;;;;;;;118.05;48.10;;;;;;;12.21;85.20;100350.47;5026308;27;97023;-69
2024/03/01 04:56:53;;;;;;;127.65;46.67;;;;;;;12.25;85.08;100341.47;5027141;27;98448;-69
2024/03/01 04:59:21;;;;;;;123.63;46.50;;;;;;;12.30;84.91;100347.38;5028502;27;98812;-68
2024/03/01 05:01:48;;;;;;;119.35;46.72;;;;;;;12.09;85.93;100343.13;5024577;27;98299;-75
2024/03/01 05:04:14;;;;;;;116.32;46.17;;;;;;;12.20;85.74;100354.06;5028030;27;97738;-75
2024/03/01 05:06:41;;;;;;;124.95;45.72;;;;;;;12.19;85.41;100347.06;5028224;27;98966;-75
2024/03/01 05:09:08;;;;;;;125.30;46.78;;;;;;;12.34;84.46;100351.59;5027516;27;100316;-75
2024/03/01 05:11:35;;;;;;;129.02;47.80;;;;;;;12.43;84.10;100344.13;5017954;27;99376;-75
2024/03/01 05:14:02;;;;;;;122.22;46.22;;;;;;;12.37;84.19;100342.66;5027460;27;97305;-75
2024/03/01 05:16:30;;;;;;;135.55;49.90;;;;;;;12.56;83.50;100348.75;5023589;27;99488;-76
2024/03/01 05:18:56;;;;;;;126.22;48.45;;;;;;;12.40;84.13;100347.81;5024791;27;98429;-76
2024/03/01 05:21:23;;;;;;;131.77;48.80;;;;;;;12.24;85.11;100357.44;5027687;27;98152;-76
2024/03/01 05:23:49;;;;;;;125.95;47.42;;;;;;;12.32;85.08;100347.31;5026243;27;97227;-77
2024/03/01 05:26:16;;;;;;;131.65;48.67;;;;;;;12.34;84.79;100350.72;5025527;27;98855;-76
2024/03/01 05:28:43;;;;;;;114.53;48.05;;;;;;;12.38;84.75;100347.00;5022373;27;98793;-77
2024/03/01 05:31:09;;;;;;;132.07;49.33;;;;;;;12.51;83.95;100345.47;5025169;27;96885;-76
2024/03/01 05:33:43;;;;;;;115.53;47.17;;;;;;;12.47;84.37;100346.53;5022028;27;97227;-76
2024/03/01 05:36:12;;;;;;;120.07;45.92;;;;;;;12.36;84.66;100341.78;5022351;27;99608;-77
2024/03/01 05:38:40;;;;;;;123.78;46.72;;;;;;;12.51;84.30;100352.56;5020927;27;98860;-74
2024/03/01 05:41:06;;;;;;;125.30;46.53;;;;;;;12.51;83.95;100341.97;5027977;27;98686;-75
2024/03/01 05:43:33;;;;;;;122.85;48.58;;;;;;;12.51;83.76;100337.53;5028087;27;96833;-76
2024/03/01 05:46:13;;;;;;;115.60;45.75;;;;;;;12.70;83.04;100350.72;5027824;27;101689;-76
2024/03/01 05:48:41;;;;;;;121.30;45.85;;;;;;;12.69;82.97;100341.03;5026887;27;97682;-75
2024/03/01 05:51:09;;;;;;;124.30;46.80;;;;;;;12.71;82.84;100339.19;5025825;27;97409;-76
2024/03/01 05:53:35;;;;;;;118.47;46.28;;;;;;;12.66;83.11;100335.91;5024347;27;96875;-76
2024/03/01 05:56:02;;;;;;;123.70;49.80;;;;;;;12.64;83.45;100349.22;5026237;27;98578;-75
2024/03/01 05:58:29;;;;;;;125.70;47.92;;;;;;;12.60;83.28;100344.16;5024796;27;98849;-75
2024/03/01 06:00:56;;;;;;;117.93;47.08;;;;;;;12.68;83.29;100353.44;5028321;27;97380;-75
2024/03/01 06:03:23;;;;;;;119.95;46.35;;;;;;;12.83;82.73;100357.09;5031676;27;96814;-76
2024/03/01 06:05:51;;;;;;;128.93;48.78;;;;;;;12.84;82.55;100348.22;5024730;27;98066;-76
2024/03/01 06:08:17;;;;;;;138.35;50.33;;;;;;;12.76;82.70;100353.91;5023151;27;99692;-78
2024/03/01 06:10:44;;;;;;;131.85;49.25;;;;;;;12.73;83.01;100353.22;5024587;27;98779;-74
2024/03/01 06:13:11;;;;;;;134.85;48.97;;;;;;;12.76;82.74;100363.66;5018870;27;97840;-75
2024/03/01 06:15:37;;;;;;;125.47;48.63;;;;;;;12.90;82.36;100361.16;5025178;27;98950;-75
2024/03/01 06:18:05;;;;;;;121.55;49.22;;;;;;;12.82;82.43;100359.84;5023457;27;99312;-76
2024/03/01 06:20:31;;;;;;;128.40;49.22;;;;;;;12.78;82.85;100367.09;5023173;27;97242;-75
2024/03/01 06:22:59;;;;;;;129.00;48.85;;;;;;;12.88;82.19;100367.47;5025173;27;97115;-75
2024/03/01 06:25:26;;;;;;;126.18;48.53;;;;;;;12.88;81.87;100372.78;5023619;27;99057;-75
2024/03/01 06:27:52;;;;;;;134.38;50.08;;;;;;;12.70;82.61;100364.81;5025077;27;97604;-75
2024/03/01 06:30:19;;;;;;;125.53;47.90;;;;;;;12.67;83.07;100369.41;5025222;27;96779;-75
2024/03/01 06:32:46;;;;;;;122.53;47.78;;;;;;;12.83;82.61;100375.66;5025078;27;96822;-75
2024/03/01 06:35:12;;;;;;;114.20;45.67;;;;;;;12.55;83.61;100380.63;5022729;27;98968;-76
2024/03/01 06:37:38;;;;;;;119.70;47.22;;;;;;;12.63;83.77;100373.16;5019066;27;99134;-75
2024/03/01 06:40:09;;;;;;;122.38;48.05;;;;;;;12.26;85.07;100374.97;5025513;27;97286;-76
2024/03/01 06:42:35;;;;;;;127.78;47.17;;;;;;;12.39;84.58;100375.22;5018867;27;98084;-76
2024/03/01 06:45:05;;;;;;;118.22;46.83;;;;;;;12.49;84.07;100379.13;5019315;27;98547;-76
2024/03/01 06:47:33;;;;;;;117.05;46.55;;;;;;;12.64;83.90;100380.19;5021875;27;99120;-75
2024/03/01 06:50:00;;;;;;;123.10;47.13;;;;;;;12.62;83.41;100388.19;5027474;27;97374;-76
2024/03/01 06:52:26;;;;;;;117.65;47.03;;;;;;;12.66;83.72;100389.78;5025306;27;100698;-75
2024/03/01 06:54:53;;;;;;;112.22;45.70;;;;;;;12.65;83.06;100382.75;5025438;27;98553;-77
2024/03/01 06:57:20;;;;;;;120.38;46.72;;;;;;;12.65;83.45;100382.75;5023790;27;99260;-76
2024/03/01 06:59:47;;;;;;;113.15;45.45;;;;;;;12.89;82.79;100375.34;5023555;27;98969;-76
2024/03/01 07:02:13;;;;;;;122.43;46.78;;;;;;;12.82;82.26;100368.66;5016994;27;97660;-75
2024/03/01 07:04:40;;;;;;;119.80;45.40;;;;;;;12.95;82.26;100368.88;5028768;27;99035;-76
2024/03/01 07:07:07;;;;;;;120.70;46.40;;;;;;;12.92;82.39;100359.31;5039722;27;99551;-75
2024/03/01 07:09:34;;;;;;;109.20;44.85;;;;;;;12.88;82.26;100354.22;5024166;27;96787;-76
2024/03/01 07:12:01;;;;;;;121.35;45.80;;;;;;;12.79;82.07;100363.50;5023878;27;98570;-76
2024/03/01 07:14:29;;;;;;;112.93;44.60;;;;;;;12.95;82.12;100368.88;5020580;27;99539;-76
2024/03/01 07:16:55;;;;;;;109.43;43.88;;;;;;;12.99;81.56;100366.00;5022732;27;99213;-76
2024/03/01 07:19:21;;;;;;;97.00;41.75;;;;;;;12.82;82.13;100368.66;5024604;27;97989;-75
2024/03/01 07:21:48;;;;;;;113.93;44.25;;;;;;;12.89;81.66;100371.84;5016032;27;99057;-76
2024/03/01 07:24:14;;;;;;;102.85;42.97;;;;;;;12.69;82.59;100372.84;5027810;27;99232;-76
2024/03/01 07:26:41;;;;;;;113.43;44.53;;;;;;;12.84;81.94;100372.09;5018284;27;99272;-75
2024/03/01 07:29:07;;;;;;;111.07;44.42;;;;;;;12.74;82.29;100381.44;5020024;27;96929;-74
2024/03/01 07:31:43;;;;;;;105.00;43.10;;;;;;;13.00;81.60;100385.41;5023867;27;96756;-75
2024/03/01 07:34:09;;;;;;;111.87;45.93;;;;;;;13.06;80.64;100383.28;5027198;27;97839;-76
2024/03/01 07:36:36;;;;;;;116.03;43.67;;;;;;;13.23;80.62;100374.53;5026991;27;99337;-75
2024/03/01 07:39:03;;;;;;;120.95;45.13;;;;;;;12.97;81.39;100370.53;5021006;27;97544;-75
2024/03/01 07:41:29;;;;;;;112.45;44.33;;;;;;;13.21;80.75;100372.88;5024565;27;97370;-76
2024/03/01 07:43:56;;;;;;;120.53;44.40;;;;;;;13.17;80.50;100374.84;5014676;27;98833;-76
2024/03/01 07:46:22;;;;;;;116.93;46.80;;;;;;;13.04;81.25;100381.69;5016125;27;99203;-75
2024/03/01 07:48:50;;;;;;;107.97;45.08;;;;;;;13.11;80.42;100375.13;5020153;27;97598;-75
2024/03/01 07:51:16;;;;;;;111.88;46.55;;;;;;;13.01;80.86;100374.72;5016549;27;97418;-77
2024/03/01 07:53:43;;;;;;;116.80;46.10;;;;;;;13.01;80.83;100379.16;5022014;27;97772;-76
2024/03/01 07:56:09;;;;;;;107.32;43.72;;;;;;;12.89;81.54;100385.97;5023322;27;99685;-76
2024/03/01 07:58:36;;;;;;;107.78;44.03;;;;;;;13.03;81.14;100382.63;5019821;27;97917;-75
2024/03/01 08:01:07;;;;;;;116.55;46.20;;;;;;;12.93;81.46;100392.00;5019396;27;99070;-76
2024/03/01 08:03:35;;;;;;;120.45;46.55;;;;;;;13.21;80.46;100386.13;5020084;27;98206;-75
2024/03/01 08:06:04;;;;;;;110.35;45.00;;;;;;;13.03;80.81;100383.47;5025288;27;98237;-74
2024/03/01 08:08:42;;;;;;;120.22;46.17;;;;;;;13.02;81.19;100391.50;5029280;27;97180;-76
2024/03/01 08:11:08;;;;;;;111.15;44.88;;;;;;;13.15;80.23;100396.13;5011237;27;98354;-75
2024/03/01 08:13:34;;;;;;;104.65;45.28;;;;;;;13.28;79.92;100392.84;5021004;27;99718;-75
2024/03/01 08:16:08;;;;;;;109.50;43.78;;;;;;;13.18;80.07;100394.28;5023059;27;99300;-77
2024/03/01 08:18:39;;;;;;;114.22;43.92;;;;;;;13.36;79.22;100396.81;5026208;27;98175;-75
2024/03/01 08:21:08;;;;;;;116.22;44.00;;;;;;;13.30;79.65;100402.44;5023470;27;97964;-75
2024/03/01 08:23:41;;;;;;;102.80;42.45;;;;;;;13.32;79.42;100394.41;5021347;27;99339;-75
2024/03/01 08:26:13;;;;;;;110.05;41.88;;;;;;;13.38;78.76;100404.72;5016039;27;97560;-74
2024/03/01 08:28:42;;;;;;;108.97;42.70;;;;;;;13.05;79.78;100405.47;5022715;27;96778;-75
2024/03/01 08:31:21;;;;;;;99.28;41.25;;;;;;;13.04;80.47;100405.56;5017266;27;97809;-75
2024/03/01 08:33:49;;;;;;;106.63;43.65;;;;;;;13.17;79.87;100406.69;5021767;27;99404;-76
2024/03/01 08:36:21;;;;;;;97.78;41.67;;;;;;;13.13;79.97;100407.75;5020614;27;102313;-76
2024/03/01 08:39:05;;;;;;;109.03;42.60;;;;;;;12.98;80.73;100409.38;5038074;27;97059;-75
2024/03/01 08:41:35;;;;;;;112.03;42.30;;;;;;;13.32;79.88;100415.66;5025238;27;96831;-76
2024/03/01 08:44:02;;;;;;;99.22;42.28;;;;;;;13.47;78.89;100409.50;5024661;27;98860;-75
2024/03/01 08:46:32;;;;;;;105.00;42.13;;;;;;;13.43;78.45;100407.97;5024668;27;99387;-75
2024/03/01 08:49:03;;;;;;;100.50;42.30;;;;;;;13.31;78.90;100412.13;5029970;27;97149;-76
2024/03/01 08:51:31;;;;;;;105.97;44.05;;;;;;;13.28;79.18;100409.63;5018299;27;97224;-75
2024/03/01 08:53:58;;;;;;;101.18;42.78;;;;;;;13.48;78.59;100412.09;5018599;27;99532;-74
2024/03/01 08:56:32;;;;;;;104.53;43.08;;;;;;;13.49;77.83;100423.56;5022533;27;97846;-74
2024/03/01 08:58:59;;;;;;;100.60;41.92;;;;;;;13.47;77.84;100417.47;5023903;27;97633;-75
2024/03/01 09:01:44;;;;;;;107.75;42.88;;;;;;;13.76;76.58;100410.63;5031360;27;98047;-74
2024/03/01 09:04:13;;;;;;;96.55;41.65;;;;;;;13.66;76.96;100406.75;5022599;27;99355;-74
2024/03/01 09:06:42;;;;;;;97.15;43.03;;;;;;;13.74;76.50;100405.41;5018872;27;98573;-75
2024/03/01 09:09:19;;;;;;;96.90;41.17;;;;;;;13.65;75.77;100403.25;5026552;27;96770;-76
2024/03/01 09:11:45;;;;;;;97.38;40.97;;;;;;;13.76;75.74;100414.16;5024432;27;97167;-75
2024/03/01 09:14:27;;;;;;;99.93;41.50;;;;;;;14.09;75.00;100405.28;5019815;27;99546;-75
2024/03/01 09:16:54;;;;;;;90.68;39.67;;;;;;;14.11;74.12;100396.25;5022146;27;98581;-75
2024/03/01 09:19:24;;;;;;;91.40;39.30;;;;;;;14.14;73.05;100400.56;5019446;27;98057;-75
2024/03/01 09:21:52;;;;;;;83.55;37.58;;;;;;;13.98;73.56;100393.44;5021854;27;96907;-75
2024/03/01 09:24:19;;;;;;;95.20;40.13;;;;;;;14.48;72.66;100400.41;5024146;27;99299;-75
2024/03/01 09:26:47;;;;;;;98.22;39.40;;;;;;;14.56;71.97;100403.50;5016396;27;97793;-74
2024/03/01 09:29:35;;;;;;;139.38;42.03;;;;;;;14.47;70.76;100404.03;5018984;27;96811;-74
2024/03/01 09:32:03;;;;;;;99.18;39.17;;;;;;;14.56;70.54;100395.53;5020003;27;98318;-75
2024/03/01 09:34:38;;;;;;;128.82;38.50;;;;;;;14.56;69.78;100406.16;5019829;27;99410;-75
2024/03/01 09:37:11;;;;;;;92.45;38.05;;;;;;;14.59;70.10;100392.69;5024971;27;98779;-75
2024/03/01 09:39:39;;;;;;;80.13;36.33;;;;;;;14.68;69.92;100399.28;5020569;27;97358;-73
2024/03/01 09:42:38;;;;;;;102.05;37.55;;;;;;;14.95;68.76;100403.00;5030940;27;96772;-76
2024/03/01 09:45:45;;;;;;;79.13;35.97;;;;;;;14.77;68.30;100403.22;5025253;27;99104;-75
2024/03/01 09:48:24;;;;;;;77.68;33.63;;;;;;;14.53;69.21;100403.66;5022523;27;99152;-75
2024/03/01 09:51:05;;;;;;;85.05;34.95;;;;;;;14.89;68.46;100394.53;5026571;27;97255;-75
2024/03/01 09:53:46;;;;;;;78.00;35.83;;;;;;;14.91;67.82;100397.91;5027402;27;96876;-75
2024/03/01 09:56:23;;;;;;;76.28;35.60;;;;;;;14.97;67.18;100397.56;5024530;27;99264;-75
2024/03/01 09:58:59;;;;;;;79.68;34.15;;;;;;;15.03;67.24;100397.22;5028286;27;97733;-74
2024/03/01 10:01:33;;;;;;;69.88;33.95;;;;;;;15.22;65.81;100397.84;5020083;27;97180;-75
2024/03/01 10:04:16;;;;;;;73.35;33.10;;;;;;;15.35;65.68;100393.50;5024784;27;98648;-75
2024/03/01 10:07:02;;;;;;;104.07;35.05;;;;;;;15.35;64.79;100388.16;5022669;27;96916;-76
2024/03/01 10:09:50;;;;;;;101.60;35.35;;;;;;;15.56;65.00;100396.66;5024944;27;98779;-75
2024/03/01 10:12:33;;;;;;;76.78;33.78;;;;;;;15.70;64.02;100396.66;5028526;27;97082;-75
2024/03/01 10:15:01;;;;;;;85.72;34.60;;;;;;;15.52;64.31;100388.00;5021151;27;98377;-75
2024/03/01 10:17:40;;;;;;;77.70;33.92;;;;;;;15.77;63.41;100387.34;5027914;27;98494;-75
2024/03/01 10:20:25;;;;;;;75.80;34.63;;;;;;;15.54;64.05;100380.78;5029421;27;98679;-75
2024/03/01 10:23:06;;;;;;;84.57;35.80;;;;;;;15.80;63.55;100383.63;5026109;27;96753;-76
2024/03/01 10:25:45;;;;;;;86.25;34.95;;;;;;;15.60;63.85;100376.91;5026071;27;97268;-75
2024/03/01 10:28:24;;;;;;;76.53;34.45;;;;;;;15.71;63.70;100381.53;5029128;27;101383;-75
2024/03/01 10:30:58;;;;;;;115.90;38.83;;;;;;;15.78;63.37;100393.53;5021840;27;99923;-75
2024/03/01 10:33:40;;;;;;;94.22;36.00;;;;;;;15.66;63.43;100394.28;5023280;27;98565;-74
2024/03/01 10:36:13;;;;;;;81.55;31.85;;;;;;;15.44;63.92;100386.72;5026527;27;97077;-76
2024/03/01 10:38:52;;;;;;;206.52;41.78;;;;;;;15.64;62.83;100393.53;5030881;27;99210;-75
2024/03/01 10:41:31;;;;;;;135.70;36.35;;;;;;;15.72;63.09;100388.59;5026319;27;98743;-75
2024/03/01 10:44:10;;;;;;;105.90;34.33;;;;;;;15.82;62.93;100384.38;5026461;27;97884;-75
2024/03/01 10:46:43;;;;;;;73.38;31.58;;;;;;;15.81;62.69;100393.34;5024304;27;96947;-75
2024/03/01 10:49:13;;;;;;;109.95;36.55;;;;;;;15.80;62.56;100384.50;5019897;27;98865;-75
2024/03/01 10:51:49;;;;;;;68.82;32.30;;;;;;;16.02;62.01;100385.78;5031250;27;99580;-75
2024/03/01 10:54:19;;;;;;;90.72;34.05;;;;;;;15.94;61.90;100383.63;5022909;27;97018;-75
2024/03/01 10:56:48;;;;;;;77.22;32.08;;;;;;;15.79;62.35;100377.47;5025703;27;96768;-75
2024/03/01 10:59:19;;;;;;;65.05;31.90;;;;;;;16.02;61.46;100381.31;5021542;27;99150;-75
2024/03/01 11:01:50;;;;;;;71.63;32.22;;;;;;;15.90;61.80;100379.44;5018059;27;98897;-75
2024/03/01 11:04:26;;;;;;;69.25;31.83;;;;;;;16.09;61.43;100387.97;5027621;27;97470;-75
2024/03/01 11:07:02;;;;;;;63.72;30.42;;;;;;;16.18;61.25;100389.19;5021596;27;97231;-75
2024/03/01 11:09:36;;;;;;;58.28;30.80;;;;;;;16.10;60.86;100395.00;5025176;27;99019;-75
2024/03/01 11:12:13;;;;;;;75.63;31.88;;;;;;;15.83;61.62;100389.63;5024301;27;98857;-75